OBBI Airport Information

Runway Information
Runway 12L Length 12979 ft width 197 ft
Elevation 6 ft Threshold 1000 ft Heading 123
Runway 30R Length 12979 ft Width 197 ft
Elevation 6 ft Threshold 1000 ft Heading 303
Runway 12R Length 8302 ft width 148 ft
Elevation 7 ft Threshold 1000 ft Heading 123
Runway 30L Length 8302 ft Width 148 ft
Elevation 6 ft Threshold 395 ft Heading 303
Airport Frequencies
Type APP Name APP Frequency 127.85 MHZ
Type ATIS Name ATIS Frequency 127.2 MHZ
Type GND Name GND Frequency 121.675 MHZ
Type OPS Name ATOC Frequency 32.175 MHZ
Type TWR Name TWR Frequency 118.5 MHZ
Airport Navaids
Type VOR-DME Name Bahrain Frequency 115300 KHZ
Type NDB Name Bahrain Frequency 395 KHZ
Airport Weather Information & NOTAM
ADDS - METARS form results

(0445 UTC 04 July 2020)
Data provider http://aviationweather.gov/metar/data/
 
METAR text: OBBI 040430Z 32014KT CAVOK 36/22 Q0998 NOSIG
Conditions at: OBBI (BAHRAIN INTL ARP, BH) observed 0430 UTC 04 July 2020
Temperature: 36.0°C (97°F)
Dewpoint: 22.0°C (72°F) [RH = 45%]
Pressure (altimeter): 29.47 inches Hg (998.0 mb)
Winds: from the NW (320 degrees) at 16 MPH (14 knots; 7.2 m/s)
Visibility: 6 or more miles (10+ km)
Ceiling: ceiling and visibility are OK
Clouds: unknown
Weather: no significant weather observed at this time

METAR text: OBBI 040400Z 31013KT CAVOK 36/24 Q0997 NOSIG
Conditions at: OBBI (BAHRAIN INTL ARP, BH) observed 0400 UTC 04 July 2020
Temperature: 36.0°C (97°F)
Dewpoint: 24.0°C (75°F) [RH = 50%]
Pressure (altimeter): 29.44 inches Hg (997.0 mb)
Winds: from the NW (310 degrees) at 15 MPH (13 knots; 6.7 m/s)
Visibility: 6 or more miles (10+ km)
Ceiling: ceiling and visibility are OK
Clouds: unknown
Weather: no significant weather observed at this time

Forecast for: OBBI (BAHRAIN INTL ARP, BH)
Text: TAF OBBI 032300Z 0400/0506 31012KT CAVOK
Forecast period: 0000 to 0600 UTC 04 July 2020
Forecast type: FROM: standard forecast or significant change
Winds: from the NW (310 degrees) at 14 MPH (12 knots; 6.2 m/s)
Visibility: 6 or more miles 10+ km)
Ceiling: unknown
Clouds: missing
Weather: NSW  (no significant weather)
Text: BECMG 0406/0408 33015G25KT
Forecast period: 0600 to 1600 UTC 04 July 2020
Forecast type: BECOMING: Conditions expected to become as follows by 0800 UTC 04 July 2020
Winds: from the NNW (330 degrees) at 17 MPH (15 knots; 7.7 m/s)
gusting to 29 MPH (25 knots; 12.9 m/s)
Visibility: 6 or more miles 10+ km)
Ceiling: unknown
Clouds: missing
Weather: NSW  (no significant weather)
Text: BECMG 0416/0418 33010KT
Forecast period: 1600 UTC 04 July 2020 to 0600 UTC 05 July 2020
Forecast type: BECOMING: Conditions expected to become as follows by 1800 UTC 04 July 2020
Winds: from the NNW (330 degrees) at 12 MPH (10 knots; 5.1 m/s)
Visibility: 6 or more miles 10+ km)
Ceiling: unknown
Clouds: missing
Weather: NSW  (no significant weather)